Springfield, IL (62704)

10:51 PM CST on January 25, 2015 (GMT -0600)
Southwest Springfield | Change Station
CLOSE
Current Station
Personal Weather Station
Location: Springfield, IL
Elevation: 607 ft
Nearby Weather Stations

Elev 607 ft 39.76 °N, 89.68 °W | Updated 0 second ago

Overcast
Overcast
27.7 °F
Feels Like 19 °F
N
9.2
Wind Variable Wind from SW
Gusts 9.2 mph

Today
High -- | Low -- °F
--% Chance of Precip.
Yesterday
High -- | Low -- °F
Precip. -- in
7:12 AM 5:09 PM
Waxing Crescent, 39% visible
Pressure 30.01 in
Visibility 10.0 miles
Clouds Mostly Cloudy 2100 ft
Overcast 4900 ft
Windchill 19 °F
Dew Point 24 °F
Humidity 84%
Rainfall 0.14 in
Snow Depth Not available.
UV 0 out of 12
Pollen .10 out of 12
Air Quality Not available.
Flu Activity Not available.
METAR KSPI 260352Z 35012KT 10SM BKN021 OVC049 M02/M06 A3000 RMK AO2 SLP163 T10171056

More Conditions Fewer Conditions

Pressure 30.01 in
Visibility 10.0 miles
Clouds Mostly Cloudy 2100 ft
Overcast 4900 ft
Windchill 19 °F
Dew Point 24 °F
Humidity 84%
Rainfall 0.14 in
Snow Depth Not available.
UV 0 out of 12
Pollen .10 out of 12
Air Quality Not available.
Flu Activity Not available.
METAR KSPI 260352Z 35012KT 10SM BKN021 OVC049 M02/M06 A3000 RMK AO2 SLP163 T10171056

More Conditions Fewer Conditions

10-Day Weather Forecast

Almanac

Astronomy

Jan. 25, 2015 Rise Set
Actual Time
Civil Twilight
Nautical Twilight
Astronomical Twilight
Moon
Length of Visible Light
Length of Day
Tomorrow will be .
, % of the Moon is Illuminated

Today's Extremes

State Highs State Lows

Community

WunderPhotos

Upload Photos

1,790,139 photos uploaded!

WunderBlogs® & News

Nearby

Air Quality

  Air Quality AQ Index Pollutant
Not available.

Snow Depth

Station Depth Elevation

Earthquake Activity

City Distance Mag. Time & Date
Minimum magnitude displayed is 2.5.

Coastal Water Temperatures

Place Temperature

Nearby Weather Stations